sensor_id;sensor_type;location;lat;lon;timestamp;P1;durP1;ratioP1;P2;durP2;ratioP2
781;SDS011;374;52.568;13.402;2023-06-26T00:01:13;16.30;;;14.77;;
781;SDS011;374;52.568;13.402;2023-06-26T00:03:39;16.53;;;15.03;;
781;SDS011;374;52.568;13.402;2023-06-26T00:06:04;17.37;;;15.87;;
781;SDS011;374;52.568;13.402;2023-06-26T00:08:30;18.73;;;17.03;;
781;SDS011;374;52.568;13.402;2023-06-26T00:10:56;17.87;;;16.23;;
781;SDS011;374;52.568;13.402;2023-06-26T00:13:22;17.23;;;15.73;;
781;SDS011;374;52.568;13.402;2023-06-26T00:15:48;16.27;;;14.87;;
781;SDS011;374;52.568;13.402;2023-06-26T00:18:15;16.90;;;15.40;;
781;SDS011;374;52.568;13.402;2023-06-26T00:20:40;16.50;;;15.10;;
781;SDS011;374;52.568;13.402;2023-06-26T00:23:06;16.67;;;15.20;;
781;SDS011;374;52.568;13.402;2023-06-26T00:25:32;17.70;;;15.93;;
781;SDS011;374;52.568;13.402;2023-06-26T00:27:58;19.00;;;16.40;;
781;SDS011;374;52.568;13.402;2023-06-26T00:30:24;17.10;;;15.60;;
781;SDS011;374;52.568;13.402;2023-06-26T00:32:49;17.60;;;15.83;;
781;SDS011;374;52.568;13.402;2023-06-26T00:35:16;17.30;;;15.60;;
781;SDS011;374;52.568;13.402;2023-06-26T00:37:41;17.93;;;16.33;;
781;SDS011;374;52.568;13.402;2023-06-26T00:40:07;19.97;;;18.17;;
781;SDS011;374;52.568;13.402;2023-06-26T00:42:33;19.37;;;17.57;;
781;SDS011;374;52.568;13.402;2023-06-26T00:44:58;16.57;;;14.97;;
781;SDS011;374;52.568;13.402;2023-06-26T00:47:24;16.47;;;14.97;;
781;SDS011;374;52.568;13.402;2023-06-26T00:49:50;17.37;;;15.77;;
781;SDS011;374;52.568;13.402;2023-06-26T00:52:16;16.40;;;15.10;;
781;SDS011;374;52.568;13.402;2023-06-26T00:54:42;17.70;;;16.00;;
781;SDS011;374;52.568;13.402;2023-06-26T00:57:08;17.67;;;16.10;;
781;SDS011;374;52.568;13.402;2023-06-26T00:59:34;16.80;;;15.20;;
781;SDS011;374;52.568;13.402;2023-06-26T01:02:00;16.13;;;14.70;;
781;SDS011;374;52.568;13.402;2023-06-26T01:04:25;16.70;;;15.27;;
781;SDS011;374;52.568;13.402;2023-06-26T01:06:52;15.90;;;14.50;;
781;SDS011;374;52.568;13.402;2023-06-26T01:09:19;15.93;;;14.63;;
781;SDS011;374;52.568;13.402;2023-06-26T01:11:45;15.93;;;14.57;;
781;SDS011;374;52.568;13.402;2023-06-26T01:14:11;15.80;;;14.40;;
781;SDS011;374;52.568;13.402;2023-06-26T01:16:38;16.90;;;15.20;;
781;SDS011;374;52.568;13.402;2023-06-26T01:19:06;17.37;;;15.87;;
781;SDS011;374;52.568;13.402;2023-06-26T01:21:40;18.93;;;17.10;;
781;SDS011;374;52.568;13.402;2023-06-26T01:24:12;17.63;;;16.03;;
781;SDS011;374;52.568;13.402;2023-06-26T01:26:45;17.90;;;16.33;;
781;SDS011;374;52.568;13.402;2023-06-26T01:29:13;17.77;;;16.07;;
781;SDS011;374;52.568;13.402;2023-06-26T01:31:40;16.37;;;14.87;;
781;SDS011;374;52.568;13.402;2023-06-26T01:34:06;16.73;;;15.33;;
781;SDS011;374;52.568;13.402;2023-06-26T01:36:32;17.13;;;15.63;;
781;SDS011;374;52.568;13.402;2023-06-26T01:38:57;18.50;;;16.90;;
781;SDS011;374;52.568;13.402;2023-06-26T01:41:23;17.23;;;15.73;;
781;SDS011;374;52.568;13.402;2023-06-26T01:52:14;17.00;;;15.50;;
781;SDS011;374;52.568;13.402;2023-06-26T01:57:42;17.30;;;15.73;;
781;SDS011;374;52.568;13.402;2023-06-26T02:00:10;17.03;;;15.53;;
781;SDS011;374;52.568;13.402;2023-06-26T02:02:37;18.77;;;17.13;;
781;SDS011;374;52.568;13.402;2023-06-26T02:05:03;17.33;;;15.93;;
781;SDS011;374;52.568;13.402;2023-06-26T02:07:28;17.43;;;16.00;;
781;SDS011;374;52.568;13.402;2023-06-26T02:09:54;18.37;;;16.53;;
781;SDS011;374;52.568;13.402;2023-06-26T02:12:20;17.47;;;15.97;;
781;SDS011;374;52.568;13.402;2023-06-26T02:14:45;18.20;;;16.53;;
781;SDS011;374;52.568;13.402;2023-06-26T02:17:11;18.40;;;16.50;;
781;SDS011;374;52.568;13.402;2023-06-26T02:19:36;18.00;;;16.47;;
781;SDS011;374;52.568;13.402;2023-06-26T02:22:02;18.00;;;16.50;;
781;SDS011;374;52.568;13.402;2023-06-26T02:24:27;15.83;;;14.53;;
781;SDS011;374;52.568;13.402;2023-06-26T02:26:55;18.97;;;17.13;;
781;SDS011;374;52.568;13.402;2023-06-26T02:29:22;17.80;;;16.10;;
781;SDS011;374;52.568;13.402;2023-06-26T02:31:47;18.03;;;16.53;;
781;SDS011;374;52.568;13.402;2023-06-26T02:34:14;18.93;;;17.20;;
781;SDS011;374;52.568;13.402;2023-06-26T02:36:39;16.20;;;14.80;;
781;SDS011;374;52.568;13.402;2023-06-26T02:39:05;17.80;;;16.20;;
781;SDS011;374;52.568;13.402;2023-06-26T02:41:30;20.57;;;18.00;;
781;SDS011;374;52.568;13.402;2023-06-26T02:43:56;18.60;;;17.00;;
781;SDS011;374;52.568;13.402;2023-06-26T02:46:21;19.73;;;17.67;;
781;SDS011;374;52.568;13.402;2023-06-26T02:48:47;19.70;;;18.10;;
781;SDS011;374;52.568;13.402;2023-06-26T02:51:12;19.07;;;17.30;;
781;SDS011;374;52.568;13.402;2023-06-26T02:53:38;20.20;;;18.17;;
781;SDS011;374;52.568;13.402;2023-06-26T02:56:04;19.90;;;17.80;;
781;SDS011;374;52.568;13.402;2023-06-26T02:58:29;19.93;;;18.13;;
781;SDS011;374;52.568;13.402;2023-06-26T03:00:55;20.33;;;18.50;;
781;SDS011;374;52.568;13.402;2023-06-26T03:03:21;18.20;;;16.60;;
781;SDS011;374;52.568;13.402;2023-06-26T03:05:46;20.90;;;18.90;;
781;SDS011;374;52.568;13.402;2023-06-26T03:08:12;19.27;;;17.37;;
781;SDS011;374;52.568;13.402;2023-06-26T03:10:37;20.43;;;18.63;;
781;SDS011;374;52.568;13.402;2023-06-26T03:13:03;19.67;;;17.97;;
781;SDS011;374;52.568;13.402;2023-06-26T03:15:28;20.90;;;19.10;;
781;SDS011;374;52.568;13.402;2023-06-26T03:17:54;20.60;;;18.90;;
781;SDS011;374;52.568;13.402;2023-06-26T03:20:19;21.07;;;19.07;;
781;SDS011;374;52.568;13.402;2023-06-26T03:22:45;20.60;;;18.73;;
781;SDS011;374;52.568;13.402;2023-06-26T03:25:10;20.90;;;19.00;;
781;SDS011;374;52.568;13.402;2023-06-26T03:27:36;21.80;;;19.80;;
781;SDS011;374;52.568;13.402;2023-06-26T03:30:01;22.03;;;20.00;;
781;SDS011;374;52.568;13.402;2023-06-26T03:32:27;20.07;;;18.20;;
781;SDS011;374;52.568;13.402;2023-06-26T03:34:52;20.77;;;18.97;;
781;SDS011;374;52.568;13.402;2023-06-26T03:37:18;19.90;;;18.30;;
781;SDS011;374;52.568;13.402;2023-06-26T03:39:43;21.93;;;20.03;;
781;SDS011;374;52.568;13.402;2023-06-26T03:42:09;20.03;;;18.27;;
781;SDS011;374;52.568;13.402;2023-06-26T03:44:34;21.77;;;19.67;;
781;SDS011;374;52.568;13.402;2023-06-26T03:47:00;22.67;;;20.50;;
781;SDS011;374;52.568;13.402;2023-06-26T03:49:25;24.93;;;22.40;;
781;SDS011;374;52.568;13.402;2023-06-26T03:51:51;21.87;;;19.97;;
781;SDS011;374;52.568;13.402;2023-06-26T03:54:16;21.97;;;19.97;;
781;SDS011;374;52.568;13.402;2023-06-26T03:56:42;21.63;;;19.70;;
781;SDS011;374;52.568;13.402;2023-06-26T03:59:07;22.00;;;20.00;;
781;SDS011;374;52.568;13.402;2023-06-26T04:01:33;22.10;;;20.00;;
781;SDS011;374;52.568;13.402;2023-06-26T04:04:01;22.03;;;20.03;;
781;SDS011;374;52.568;13.402;2023-06-26T04:06:26;21.13;;;19.07;;
781;SDS011;374;52.568;13.402;2023-06-26T04:08:52;22.80;;;20.90;;
781;SDS011;374;52.568;13.402;2023-06-26T04:11:17;25.40;;;22.77;;
781;SDS011;374;52.568;13.402;2023-06-26T04:13:43;24.93;;;22.83;;
781;SDS011;374;52.568;13.402;2023-06-26T04:16:08;24.77;;;22.67;;
781;SDS011;374;52.568;13.402;2023-06-26T04:18:36;24.33;;;22.30;;
781;SDS011;374;52.568;13.402;2023-06-26T04:21:09;24.23;;;22.10;;
781;SDS011;374;52.568;13.402;2023-06-26T04:23:36;24.23;;;22.13;;
781;SDS011;374;52.568;13.402;2023-06-26T04:26:03;23.90;;;21.80;;
781;SDS011;374;52.568;13.402;2023-06-26T04:28:30;23.17;;;21.00;;
781;SDS011;374;52.568;13.402;2023-06-26T04:30:56;24.20;;;22.10;;
781;SDS011;374;52.568;13.402;2023-06-26T04:33:21;23.57;;;21.60;;
781;SDS011;374;52.568;13.402;2023-06-26T04:35:48;22.57;;;20.57;;
781;SDS011;374;52.568;13.402;2023-06-26T04:38:14;22.63;;;20.63;;
781;SDS011;374;52.568;13.402;2023-06-26T04:40:40;22.93;;;20.83;;
781;SDS011;374;52.568;13.402;2023-06-26T04:43:06;22.80;;;20.87;;
781;SDS011;374;52.568;13.402;2023-06-26T04:45:31;22.23;;;20.33;;
781;SDS011;374;52.568;13.402;2023-06-26T04:47:57;21.10;;;19.40;;
781;SDS011;374;52.568;13.402;2023-06-26T04:50:24;22.07;;;20.27;;
781;SDS011;374;52.568;13.402;2023-06-26T04:52:50;21.70;;;19.50;;
781;SDS011;374;52.568;13.402;2023-06-26T04:55:15;22.30;;;20.30;;
781;SDS011;374;52.568;13.402;2023-06-26T04:57:41;22.43;;;20.63;;
781;SDS011;374;52.568;13.402;2023-06-26T05:00:06;21.37;;;19.40;;
781;SDS011;374;52.568;13.402;2023-06-26T05:02:35;22.77;;;20.77;;
781;SDS011;374;52.568;13.402;2023-06-26T05:05:01;23.77;;;21.70;;
781;SDS011;374;52.568;13.402;2023-06-26T05:07:26;22.37;;;20.50;;
781;SDS011;374;52.568;13.402;2023-06-26T05:09:52;24.47;;;22.23;;
781;SDS011;374;52.568;13.402;2023-06-26T05:12:17;22.63;;;20.73;;
781;SDS011;374;52.568;13.402;2023-06-26T05:14:43;21.53;;;19.83;;
781;SDS011;374;52.568;13.402;2023-06-26T05:17:08;21.67;;;19.83;;
781;SDS011;374;52.568;13.402;2023-06-26T05:19:34;24.73;;;20.67;;
781;SDS011;374;52.568;13.402;2023-06-26T05:22:00;22.03;;;19.90;;
781;SDS011;374;52.568;13.402;2023-06-26T05:24:28;21.10;;;19.30;;
781;SDS011;374;52.568;13.402;2023-06-26T05:26:55;20.83;;;19.17;;
781;SDS011;374;52.568;13.402;2023-06-26T05:29:21;20.37;;;18.57;;
781;SDS011;374;52.568;13.402;2023-06-26T05:31:46;21.30;;;19.37;;
781;SDS011;374;52.568;13.402;2023-06-26T05:34:14;17.63;;;16.03;;
781;SDS011;374;52.568;13.402;2023-06-26T05:36:42;17.40;;;15.90;;
781;SDS011;374;52.568;13.402;2023-06-26T05:39:08;18.20;;;16.57;;
781;SDS011;374;52.568;13.402;2023-06-26T05:41:34;18.40;;;16.60;;
781;SDS011;374;52.568;13.402;2023-06-26T05:44:00;19.13;;;17.53;;
781;SDS011;374;52.568;13.402;2023-06-26T05:46:25;19.07;;;17.57;;
781;SDS011;374;52.568;13.402;2023-06-26T05:48:51;19.90;;;17.70;;
781;SDS011;374;52.568;13.402;2023-06-26T05:51:16;20.10;;;18.30;;
781;SDS011;374;52.568;13.402;2023-06-26T05:53:42;19.00;;;17.30;;
781;SDS011;374;52.568;13.402;2023-06-26T05:56:08;17.83;;;16.33;;
781;SDS011;374;52.568;13.402;2023-06-26T05:58:35;19.33;;;17.53;;
781;SDS011;374;52.568;13.402;2023-06-26T06:01:00;17.50;;;16.10;;
781;SDS011;374;52.568;13.402;2023-06-26T06:03:26;16.77;;;15.37;;
781;SDS011;374;52.568;13.402;2023-06-26T06:05:51;18.60;;;16.80;;
781;SDS011;374;52.568;13.402;2023-06-26T06:08:17;17.60;;;16.00;;
781;SDS011;374;52.568;13.402;2023-06-26T06:10:42;17.23;;;15.53;;
781;SDS011;374;52.568;13.402;2023-06-26T06:13:08;17.00;;;15.50;;
781;SDS011;374;52.568;13.402;2023-06-26T06:15:35;15.63;;;14.37;;
781;SDS011;374;52.568;13.402;2023-06-26T06:18:00;17.90;;;15.20;;
781;SDS011;374;52.568;13.402;2023-06-26T06:20:26;16.40;;;14.80;;
781;SDS011;374;52.568;13.402;2023-06-26T06:22:52;15.43;;;14.00;;
781;SDS011;374;52.568;13.402;2023-06-26T06:25:17;14.73;;;13.43;;
781;SDS011;374;52.568;13.402;2023-06-26T06:27:58;14.50;;;13.20;;
781;SDS011;374;52.568;13.402;2023-06-26T06:30:34;14.97;;;13.70;;
781;SDS011;374;52.568;13.402;2023-06-26T06:33:00;15.23;;;13.93;;
781;SDS011;374;52.568;13.402;2023-06-26T06:35:26;14.03;;;12.93;;
781;SDS011;374;52.568;13.402;2023-06-26T06:37:52;13.80;;;12.60;;
781;SDS011;374;52.568;13.402;2023-06-26T06:40:17;14.23;;;12.90;;
781;SDS011;374;52.568;13.402;2023-06-26T06:42:43;15.10;;;13.60;;
781;SDS011;374;52.568;13.402;2023-06-26T06:45:09;13.77;;;12.57;;
781;SDS011;374;52.568;13.402;2023-06-26T06:47:34;12.53;;;11.47;;
781;SDS011;374;52.568;13.402;2023-06-26T06:50:00;12.57;;;11.47;;
781;SDS011;374;52.568;13.402;2023-06-26T06:52:38;13.87;;;12.30;;
781;SDS011;374;52.568;13.402;2023-06-26T06:55:06;14.37;;;13.00;;
781;SDS011;374;52.568;13.402;2023-06-26T06:57:36;13.33;;;11.87;;
781;SDS011;374;52.568;13.402;2023-06-26T07:00:04;13.30;;;12.03;;
781;SDS011;374;52.568;13.402;2023-06-26T07:02:35;12.83;;;11.70;;
781;SDS011;374;52.568;13.402;2023-06-26T07:05:01;12.93;;;11.80;;
781;SDS011;374;52.568;13.402;2023-06-26T07:07:28;13.23;;;12.13;;
781;SDS011;374;52.568;13.402;2023-06-26T07:10:03;15.50;;;12.20;;
781;SDS011;374;52.568;13.402;2023-06-26T07:12:30;12.87;;;11.80;;
781;SDS011;374;52.568;13.402;2023-06-26T07:14:56;12.90;;;11.87;;
781;SDS011;374;52.568;13.402;2023-06-26T07:17:22;12.77;;;11.77;;
781;SDS011;374;52.568;13.402;2023-06-26T07:19:48;12.40;;;11.30;;
781;SDS011;374;52.568;13.402;2023-06-26T07:22:14;11.33;;;10.27;;
781;SDS011;374;52.568;13.402;2023-06-26T07:24:40;11.53;;;10.43;;
781;SDS011;374;52.568;13.402;2023-06-26T07:27:05;9.93;;;9.10;;
781;SDS011;374;52.568;13.402;2023-06-26T07:29:31;8.77;;;7.80;;
781;SDS011;374;52.568;13.402;2023-06-26T07:31:57;10.83;;;8.50;;
781;SDS011;374;52.568;13.402;2023-06-26T07:34:22;10.33;;;9.30;;
781;SDS011;374;52.568;13.402;2023-06-26T07:36:48;10.30;;;9.20;;
781;SDS011;374;52.568;13.402;2023-06-26T07:39:13;8.33;;;7.57;;
781;SDS011;374;52.568;13.402;2023-06-26T07:41:38;10.33;;;9.53;;
781;SDS011;374;52.568;13.402;2023-06-26T07:44:04;9.97;;;9.17;;
781;SDS011;374;52.568;13.402;2023-06-26T07:46:29;10.30;;;9.40;;
781;SDS011;374;52.568;13.402;2023-06-26T07:48:55;9.60;;;8.80;;
781;SDS011;374;52.568;13.402;2023-06-26T07:51:20;9.60;;;8.80;;
781;SDS011;374;52.568;13.402;2023-06-26T07:53:46;7.83;;;7.23;;
781;SDS011;374;52.568;13.402;2023-06-26T07:56:12;10.23;;;9.23;;
781;SDS011;374;52.568;13.402;2023-06-26T07:58:37;9.43;;;8.73;;
781;SDS011;374;52.568;13.402;2023-06-26T08:01:03;9.77;;;8.93;;
781;SDS011;374;52.568;13.402;2023-06-26T08:03:28;9.40;;;8.60;;
781;SDS011;374;52.568;13.402;2023-06-26T08:05:54;8.70;;;8.00;;
781;SDS011;374;52.568;13.402;2023-06-26T08:08:19;10.10;;;9.30;;
781;SDS011;374;52.568;13.402;2023-06-26T08:10:45;9.30;;;8.50;;
781;SDS011;374;52.568;13.402;2023-06-26T08:13:10;9.13;;;8.37;;
781;SDS011;374;52.568;13.402;2023-06-26T08:15:36;10.23;;;9.33;;
781;SDS011;374;52.568;13.402;2023-06-26T08:18:01;10.93;;;9.83;;
781;SDS011;374;52.568;13.402;2023-06-26T08:20:27;9.57;;;8.77;;
781;SDS011;374;52.568;13.402;2023-06-26T08:22:53;9.70;;;8.83;;
781;SDS011;374;52.568;13.402;2023-06-26T08:25:19;10.43;;;9.53;;
781;SDS011;374;52.568;13.402;2023-06-26T08:27:45;10.40;;;8.80;;
781;SDS011;374;52.568;13.402;2023-06-26T08:30:11;10.17;;;9.27;;
781;SDS011;374;52.568;13.402;2023-06-26T08:32:36;8.93;;;8.23;;
781;SDS011;374;52.568;13.402;2023-06-26T08:35:02;8.10;;;7.50;;
781;SDS011;374;52.568;13.402;2023-06-26T08:37:28;8.60;;;7.93;;
781;SDS011;374;52.568;13.402;2023-06-26T08:39:53;11.03;;;8.60;;
781;SDS011;374;52.568;13.402;2023-06-26T08:42:19;8.20;;;7.60;;
781;SDS011;374;52.568;13.402;2023-06-26T08:44:44;7.90;;;7.30;;
781;SDS011;374;52.568;13.402;2023-06-26T08:47:11;8.10;;;7.40;;
781;SDS011;374;52.568;13.402;2023-06-26T08:49:42;8.70;;;8.00;;
781;SDS011;374;52.568;13.402;2023-06-26T08:52:36;8.93;;;8.13;;
781;SDS011;374;52.568;13.402;2023-06-26T08:55:09;8.50;;;7.80;;
781;SDS011;374;52.568;13.402;2023-06-26T08:57:36;8.03;;;7.40;;
781;SDS011;374;52.568;13.402;2023-06-26T09:00:02;7.83;;;7.23;;
781;SDS011;374;52.568;13.402;2023-06-26T09:02:28;7.07;;;6.53;;
781;SDS011;374;52.568;13.402;2023-06-26T09:04:54;6.90;;;6.30;;
781;SDS011;374;52.568;13.402;2023-06-26T09:07:20;9.50;;;6.70;;
781;SDS011;374;52.568;13.402;2023-06-26T09:09:46;7.80;;;7.10;;
781;SDS011;374;52.568;13.402;2023-06-26T09:12:12;8.67;;;7.97;;
781;SDS011;374;52.568;13.402;2023-06-26T09:14:38;7.33;;;6.73;;
781;SDS011;374;52.568;13.402;2023-06-26T09:17:04;8.03;;;7.37;;
781;SDS011;374;52.568;13.402;2023-06-26T09:19:30;8.27;;;7.67;;
781;SDS011;374;52.568;13.402;2023-06-26T09:21:55;7.70;;;7.10;;
781;SDS011;374;52.568;13.402;2023-06-26T09:24:21;8.00;;;7.40;;
781;SDS011;374;52.568;13.402;2023-06-26T09:26:47;7.57;;;6.90;;
781;SDS011;374;52.568;13.402;2023-06-26T09:29:14;7.97;;;7.27;;
781;SDS011;374;52.568;13.402;2023-06-26T09:31:40;7.90;;;7.10;;
781;SDS011;374;52.568;13.402;2023-06-26T09:34:06;8.00;;;7.30;;
781;SDS011;374;52.568;13.402;2023-06-26T09:36:32;7.80;;;7.20;;
781;SDS011;374;52.568;13.402;2023-06-26T09:39:01;9.10;;;8.30;;
781;SDS011;374;52.568;13.402;2023-06-26T09:41:29;7.73;;;7.13;;
781;SDS011;374;52.568;13.402;2023-06-26T09:43:56;7.60;;;6.90;;
781;SDS011;374;52.568;13.402;2023-06-26T09:46:29;10.50;;;7.50;;
781;SDS011;374;52.568;13.402;2023-06-26T09:51:31;8.93;;;8.13;;
781;SDS011;374;52.568;13.402;2023-06-26T09:53:58;7.70;;;7.10;;
781;SDS011;374;52.568;13.402;2023-06-26T09:56:25;9.07;;;8.27;;
781;SDS011;374;52.568;13.402;2023-06-26T09:58:51;7.80;;;7.00;;
781;SDS011;374;52.568;13.402;2023-06-26T10:01:17;8.70;;;8.00;;
781;SDS011;374;52.568;13.402;2023-06-26T10:03:43;8.47;;;7.77;;
781;SDS011;374;52.568;13.402;2023-06-26T10:06:09;7.83;;;7.23;;
781;SDS011;374;52.568;13.402;2023-06-26T10:08:37;7.73;;;7.03;;
781;SDS011;374;52.568;13.402;2023-06-26T10:11:04;8.10;;;7.40;;
781;SDS011;374;52.568;13.402;2023-06-26T10:13:38;9.30;;;8.60;;
781;SDS011;374;52.568;13.402;2023-06-26T10:16:06;7.57;;;6.97;;
781;SDS011;374;52.568;13.402;2023-06-26T10:18:33;6.93;;;6.43;;
781;SDS011;374;52.568;13.402;2023-06-26T10:21:01;5.60;;;5.20;;
781;SDS011;374;52.568;13.402;2023-06-26T10:23:30;6.70;;;6.10;;
781;SDS011;374;52.568;13.402;2023-06-26T10:25:57;7.40;;;6.70;;
781;SDS011;374;52.568;13.402;2023-06-26T10:28:25;8.53;;;6.83;;
781;SDS011;374;52.568;13.402;2023-06-26T10:30:53;6.90;;;6.40;;
781;SDS011;374;52.568;13.402;2023-06-26T10:33:20;7.37;;;6.67;;
781;SDS011;374;52.568;13.402;2023-06-26T10:35:46;7.33;;;6.73;;
781;SDS011;374;52.568;13.402;2023-06-26T10:38:12;6.63;;;6.03;;
781;SDS011;374;52.568;13.402;2023-06-26T10:40:45;6.80;;;6.20;;
781;SDS011;374;52.568;13.402;2023-06-26T10:43:13;7.17;;;6.57;;
781;SDS011;374;52.568;13.402;2023-06-26T10:45:46;7.50;;;6.90;;
781;SDS011;374;52.568;13.402;2023-06-26T10:48:17;8.27;;;7.57;;
781;SDS011;374;52.568;13.402;2023-06-26T10:50:43;7.83;;;6.53;;
781;SDS011;374;52.568;13.402;2023-06-26T10:55:51;8.03;;;7.33;;
781;SDS011;374;52.568;13.402;2023-06-26T11:01:22;8.07;;;7.37;;
781;SDS011;374;52.568;13.402;2023-06-26T11:06:23;7.43;;;6.83;;
781;SDS011;374;52.568;13.402;2023-06-26T11:11:15;8.23;;;7.57;;
781;SDS011;374;52.568;13.402;2023-06-26T11:13:41;7.20;;;6.70;;
781;SDS011;374;52.568;13.402;2023-06-26T11:16:07;8.37;;;7.67;;
781;SDS011;374;52.568;13.402;2023-06-26T11:18:33;7.63;;;7.00;;
781;SDS011;374;52.568;13.402;2023-06-26T11:21:08;8.40;;;7.77;;
781;SDS011;374;52.568;13.402;2023-06-26T11:23:39;6.87;;;6.27;;
781;SDS011;374;52.568;13.402;2023-06-26T11:26:12;8.70;;;7.80;;
781;SDS011;374;52.568;13.402;2023-06-26T11:28:39;7.73;;;7.03;;
781;SDS011;374;52.568;13.402;2023-06-26T11:31:21;8.77;;;7.97;;
781;SDS011;374;52.568;13.402;2023-06-26T11:33:59;9.40;;;8.60;;
781;SDS011;374;52.568;13.402;2023-06-26T11:36:27;8.20;;;7.60;;
781;SDS011;374;52.568;13.402;2023-06-26T11:38:54;7.73;;;7.23;;
781;SDS011;374;52.568;13.402;2023-06-26T11:41:29;8.90;;;8.20;;
781;SDS011;374;52.568;13.402;2023-06-26T11:43:55;9.07;;;8.33;;
781;SDS011;374;52.568;13.402;2023-06-26T11:46:25;7.60;;;7.00;;
781;SDS011;374;52.568;13.402;2023-06-26T11:48:50;8.83;;;8.13;;
781;SDS011;374;52.568;13.402;2023-06-26T11:51:17;8.90;;;8.20;;
781;SDS011;374;52.568;13.402;2023-06-26T11:53:43;10.00;;;9.20;;
781;SDS011;374;52.568;13.402;2023-06-26T11:56:10;10.80;;;9.70;;
781;SDS011;374;52.568;13.402;2023-06-26T11:58:54;8.50;;;7.90;;
781;SDS011;374;52.568;13.402;2023-06-26T12:01:29;9.10;;;8.40;;
781;SDS011;374;52.568;13.402;2023-06-26T12:04:09;8.70;;;7.90;;
781;SDS011;374;52.568;13.402;2023-06-26T12:06:36;9.20;;;8.40;;
781;SDS011;374;52.568;13.402;2023-06-26T12:09:06;9.87;;;8.97;;
781;SDS011;374;52.568;13.402;2023-06-26T12:11:34;8.73;;;8.03;;
781;SDS011;374;52.568;13.402;2023-06-26T12:14:01;8.37;;;7.67;;
781;SDS011;374;52.568;13.402;2023-06-26T12:16:28;8.70;;;8.00;;
781;SDS011;374;52.568;13.402;2023-06-26T12:19:01;8.30;;;7.70;;
781;SDS011;374;52.568;13.402;2023-06-26T12:24:03;8.03;;;7.43;;
781;SDS011;374;52.568;13.402;2023-06-26T12:26:30;7.90;;;7.30;;
781;SDS011;374;52.568;13.402;2023-06-26T12:29:01;8.83;;;8.13;;
781;SDS011;374;52.568;13.402;2023-06-26T12:31:34;8.70;;;8.10;;
781;SDS011;374;52.568;13.402;2023-06-26T12:34:08;8.17;;;7.50;;
781;SDS011;374;52.568;13.402;2023-06-26T12:36:41;8.87;;;8.17;;
781;SDS011;374;52.568;13.402;2023-06-26T12:39:09;9.33;;;8.53;;
781;SDS011;374;52.568;13.402;2023-06-26T12:41:45;8.67;;;7.97;;
781;SDS011;374;52.568;13.402;2023-06-26T12:44:21;8.47;;;7.80;;
781;SDS011;374;52.568;13.402;2023-06-26T12:46:50;8.67;;;7.97;;
781;SDS011;374;52.568;13.402;2023-06-26T12:49:19;8.10;;;7.40;;
781;SDS011;374;52.568;13.402;2023-06-26T12:51:45;9.30;;;8.60;;
781;SDS011;374;52.568;13.402;2023-06-26T12:54:11;8.80;;;8.10;;
781;SDS011;374;52.568;13.402;2023-06-26T12:56:37;9.27;;;8.47;;
781;SDS011;374;52.568;13.402;2023-06-26T12:59:02;10.70;;;9.83;;
781;SDS011;374;52.568;13.402;2023-06-26T13:01:28;9.33;;;8.63;;
781;SDS011;374;52.568;13.402;2023-06-26T13:03:54;9.60;;;8.57;;
781;SDS011;374;52.568;13.402;2023-06-26T13:06:19;10.03;;;9.20;;
781;SDS011;374;52.568;13.402;2023-06-26T13:08:45;10.40;;;9.50;;
781;SDS011;374;52.568;13.402;2023-06-26T13:11:11;9.57;;;8.77;;
781;SDS011;374;52.568;13.402;2023-06-26T13:13:36;9.80;;;9.00;;
781;SDS011;374;52.568;13.402;2023-06-26T13:16:02;9.57;;;8.87;;
781;SDS011;374;52.568;13.402;2023-06-26T13:18:28;10.10;;;9.20;;
781;SDS011;374;52.568;13.402;2023-06-26T13:20:53;11.20;;;10.20;;
781;SDS011;374;52.568;13.402;2023-06-26T13:23:19;10.17;;;9.27;;
781;SDS011;374;52.568;13.402;2023-06-26T13:25:45;10.03;;;9.13;;
781;SDS011;374;52.568;13.402;2023-06-26T13:28:10;10.87;;;9.87;;
781;SDS011;374;52.568;13.402;2023-06-26T13:30:36;10.17;;;9.20;;
781;SDS011;374;52.568;13.402;2023-06-26T13:33:01;10.13;;;9.33;;
781;SDS011;374;52.568;13.402;2023-06-26T13:35:27;11.50;;;10.60;;
781;SDS011;374;52.568;13.402;2023-06-26T13:37:53;11.63;;;10.27;;
781;SDS011;374;52.568;13.402;2023-06-26T13:40:18;10.63;;;9.60;;
781;SDS011;374;52.568;13.402;2023-06-26T13:42:44;10.10;;;9.40;;
781;SDS011;374;52.568;13.402;2023-06-26T13:45:09;10.07;;;9.33;;
781;SDS011;374;52.568;13.402;2023-06-26T13:47:36;9.47;;;8.77;;
781;SDS011;374;52.568;13.402;2023-06-26T13:50:05;10.60;;;9.70;;
781;SDS011;374;52.568;13.402;2023-06-26T13:52:31;10.47;;;9.67;;
781;SDS011;374;52.568;13.402;2023-06-26T13:54:56;10.90;;;9.80;;
781;SDS011;374;52.568;13.402;2023-06-26T13:57:22;10.73;;;9.90;;
781;SDS011;374;52.568;13.402;2023-06-26T13:59:47;9.70;;;8.70;;
781;SDS011;374;52.568;13.402;2023-06-26T14:02:13;10.57;;;9.77;;
781;SDS011;374;52.568;13.402;2023-06-26T14:04:39;10.60;;;9.70;;
781;SDS011;374;52.568;13.402;2023-06-26T14:07:05;9.93;;;9.03;;
781;SDS011;374;52.568;13.402;2023-06-26T14:09:31;10.73;;;9.83;;
781;SDS011;374;52.568;13.402;2023-06-26T14:11:58;10.73;;;9.87;;
781;SDS011;374;52.568;13.402;2023-06-26T14:14:23;10.43;;;9.63;;
781;SDS011;374;52.568;13.402;2023-06-26T14:16:49;8.80;;;8.10;;
781;SDS011;374;52.568;13.402;2023-06-26T14:19:15;10.53;;;9.57;;
781;SDS011;374;52.568;13.402;2023-06-26T14:21:42;10.63;;;9.73;;
781;SDS011;374;52.568;13.402;2023-06-26T14:24:08;12.57;;;8.90;;
781;SDS011;374;52.568;13.402;2023-06-26T14:26:33;10.70;;;9.67;;
781;SDS011;374;52.568;13.402;2023-06-26T14:29:02;17.87;;;11.53;;
781;SDS011;374;52.568;13.402;2023-06-26T14:31:28;13.67;;;11.03;;
781;SDS011;374;52.568;13.402;2023-06-26T14:33:53;17.40;;;12.63;;
781;SDS011;374;52.568;13.402;2023-06-26T14:36:19;15.50;;;12.70;;
781;SDS011;374;52.568;13.402;2023-06-26T14:38:45;12.80;;;11.50;;
781;SDS011;374;52.568;13.402;2023-06-26T14:41:10;11.23;;;10.10;;
781;SDS011;374;52.568;13.402;2023-06-26T14:43:36;9.80;;;8.90;;
781;SDS011;374;52.568;13.402;2023-06-26T14:46:02;9.03;;;8.20;;
781;SDS011;374;52.568;13.402;2023-06-26T14:48:28;9.67;;;7.90;;
781;SDS011;374;52.568;13.402;2023-06-26T14:50:53;9.17;;;8.27;;
781;SDS011;374;52.568;13.402;2023-06-26T14:53:19;9.87;;;8.97;;
781;SDS011;374;52.568;13.402;2023-06-26T14:55:44;12.30;;;11.07;;
781;SDS011;374;52.568;13.402;2023-06-26T14:58:10;11.67;;;10.67;;
781;SDS011;374;52.568;13.402;2023-06-26T15:00:35;14.80;;;13.40;;
781;SDS011;374;52.568;13.402;2023-06-26T15:03:01;15.70;;;14.17;;
781;SDS011;374;52.568;13.402;2023-06-26T15:05:27;19.10;;;14.97;;
781;SDS011;374;52.568;13.402;2023-06-26T15:07:52;16.07;;;14.43;;
781;SDS011;374;52.568;13.402;2023-06-26T15:10:18;13.07;;;11.67;;
781;SDS011;374;52.568;13.402;2023-06-26T15:12:46;12.47;;;11.20;;
781;SDS011;374;52.568;13.402;2023-06-26T15:15:12;9.00;;;7.33;;
781;SDS011;374;52.568;13.402;2023-06-26T15:17:38;8.40;;;7.40;;
781;SDS011;374;52.568;13.402;2023-06-26T15:20:04;10.20;;;7.53;;
781;SDS011;374;52.568;13.402;2023-06-26T15:22:30;7.90;;;7.17;;
781;SDS011;374;52.568;13.402;2023-06-26T15:24:55;7.23;;;6.33;;
781;SDS011;374;52.568;13.402;2023-06-26T15:27:21;9.00;;;7.87;;
781;SDS011;374;52.568;13.402;2023-06-26T15:29:46;7.13;;;6.43;;
781;SDS011;374;52.568;13.402;2023-06-26T15:32:18;6.17;;;5.57;;
781;SDS011;374;52.568;13.402;2023-06-26T15:34:44;9.07;;;8.20;;
781;SDS011;374;52.568;13.402;2023-06-26T15:37:11;8.20;;;7.40;;